sensor_id;sensor_type;location;lat;lon;timestamp;pressure;altitude;pressure_sealevel;temperature;humidity
28344;BME280;15597;50.914;6.638;2023-03-03T00:00:12;101438.53;;;7.72;47.15
28344;BME280;15597;50.914;6.638;2023-03-03T00:02:38;101438.53;;;7.69;47.09
28344;BME280;15597;50.914;6.638;2023-03-03T00:05:04;101439.38;;;7.65;47.02
28344;BME280;15597;50.914;6.638;2023-03-03T00:07:30;101443.72;;;7.63;47.56
28344;BME280;15597;50.914;6.638;2023-03-03T00:09:55;101442.81;;;7.63;47.04
28344;BME280;15597;50.914;6.638;2023-03-03T00:12:28;101447.19;;;7.62;47.91
28344;BME280;15597;50.914;6.638;2023-03-03T00:14:55;101450.66;;;7.64;48.36
28344;BME280;15597;50.914;6.638;2023-03-03T00:17:25;101441.97;;;7.65;47.83
28344;BME280;15597;50.914;6.638;2023-03-03T00:19:51;101448.06;;;7.69;47.97
28344;BME280;15597;50.914;6.638;2023-03-03T00:22:30;101443.75;;;7.69;47.87
28344;BME280;15597;50.914;6.638;2023-03-03T00:27:50;101455.88;;;7.64;48.04
28344;BME280;15597;50.914;6.638;2023-03-03T00:30:26;101447.16;;;7.60;47.75
28344;BME280;15597;50.914;6.638;2023-03-03T00:32:53;101447.19;;;7.62;47.63
28344;BME280;15597;50.914;6.638;2023-03-03T00:35:26;101450.63;;;7.58;47.33
28344;BME280;15597;50.914;6.638;2023-03-03T00:38:00;101448.03;;;7.55;47.79
28344;BME280;15597;50.914;6.638;2023-03-03T00:40:36;101448.88;;;7.54;47.47
28344;BME280;15597;50.914;6.638;2023-03-03T00:45:43;101447.16;;;7.56;47.83
28344;BME280;15597;50.914;6.638;2023-03-03T00:48:25;101456.69;;;7.55;48.02
28344;BME280;15597;50.914;6.638;2023-03-03T00:50:52;101452.34;;;7.50;48.15
28344;BME280;15597;50.914;6.638;2023-03-03T00:53:19;101455.81;;;7.49;47.99
28344;BME280;15597;50.914;6.638;2023-03-03T00:55:47;101455.78;;;7.45;47.96
28344;BME280;15597;50.914;6.638;2023-03-03T00:58:14;101453.13;;;7.41;47.76
28344;BME280;15597;50.914;6.638;2023-03-03T01:00:43;101460.91;;;7.36;47.87
28344;BME280;15597;50.914;6.638;2023-03-03T01:03:14;101466.97;;;7.35;47.74
28344;BME280;15597;50.914;6.638;2023-03-03T01:05:41;101465.25;;;7.37;48.42
28344;BME280;15597;50.914;6.638;2023-03-03T01:08:06;101468.75;;;7.38;48.23
28344;BME280;15597;50.914;6.638;2023-03-03T01:10:36;101463.53;;;7.38;47.58
28344;BME280;15597;50.914;6.638;2023-03-03T01:13:04;101464.38;;;7.35;48.39
28344;BME280;15597;50.914;6.638;2023-03-03T01:15:30;101464.34;;;7.32;47.78
28344;BME280;15597;50.914;6.638;2023-03-03T01:17:55;101462.59;;;7.28;47.42
28344;BME280;15597;50.914;6.638;2023-03-03T01:20:21;101466.94;;;7.27;48.02
28344;BME280;15597;50.914;6.638;2023-03-03T01:22:48;101463.44;;;7.22;47.43
28344;BME280;15597;50.914;6.638;2023-03-03T01:25:13;101462.56;;;7.22;47.88
28344;BME280;15597;50.914;6.638;2023-03-03T01:27:39;101464.31;;;7.21;47.88
28344;BME280;15597;50.914;6.638;2023-03-03T01:30:06;101467.78;;;7.20;48.61
28344;BME280;15597;50.914;6.638;2023-03-03T01:32:32;101474.69;;;7.20;48.32
28344;BME280;15597;50.914;6.638;2023-03-03T01:34:58;101468.59;;;7.14;47.92
28344;BME280;15597;50.914;6.638;2023-03-03T01:37:23;101474.63;;;7.07;47.67
28344;BME280;15597;50.914;6.638;2023-03-03T01:39:51;101479.78;;;7.01;47.98
28344;BME280;15597;50.914;6.638;2023-03-03T01:42:17;101478.88;;;6.94;48.21
28344;BME280;15597;50.914;6.638;2023-03-03T01:44:43;101483.13;;;6.87;48.43
28344;BME280;15597;50.914;6.638;2023-03-03T01:47:12;101480.47;;;6.80;48.02
28344;BME280;15597;50.914;6.638;2023-03-03T01:49:48;101486.44;;;6.68;47.98
28344;BME280;15597;50.914;6.638;2023-03-03T01:52:26;101484.66;;;6.61;48.44
28344;BME280;15597;50.914;6.638;2023-03-03T01:54:59;101477.66;;;6.56;48.70
28344;BME280;15597;50.914;6.638;2023-03-03T01:57:31;101482.00;;;6.54;48.50
28344;BME280;15597;50.914;6.638;2023-03-03T01:59:59;101475.00;;;6.52;48.59
28344;BME280;15597;50.914;6.638;2023-03-03T02:02:27;101472.44;;;6.53;48.76
28344;BME280;15597;50.914;6.638;2023-03-03T02:04:53;101480.28;;;6.58;48.89
28344;BME280;15597;50.914;6.638;2023-03-03T02:07:20;101483.78;;;6.62;49.23
28344;BME280;15597;50.914;6.638;2023-03-03T02:10:10;101474.22;;;6.59;49.38
28344;BME280;15597;50.914;6.638;2023-03-03T02:12:40;101488.09;;;6.61;49.21
28344;BME280;15597;50.914;6.638;2023-03-03T02:15:23;101487.22;;;6.57;49.64
28344;BME280;15597;50.914;6.638;2023-03-03T02:17:53;101483.75;;;6.58;49.57
28344;BME280;15597;50.914;6.638;2023-03-03T02:23:04;101486.38;;;6.62;49.67
28344;BME280;15597;50.914;6.638;2023-03-03T02:28:30;101489.91;;;6.67;50.40
28344;BME280;15597;50.914;6.638;2023-03-03T02:31:01;101497.72;;;6.71;50.51
28344;BME280;15597;50.914;6.638;2023-03-03T02:33:27;101489.94;;;6.70;49.96
28344;BME280;15597;50.914;6.638;2023-03-03T02:35:54;101493.41;;;6.72;50.21
28344;BME280;15597;50.914;6.638;2023-03-03T02:44:07;101501.09;;;6.61;50.98
28344;BME280;15597;50.914;6.638;2023-03-03T02:46:41;101500.25;;;6.61;50.39
28344;BME280;15597;50.914;6.638;2023-03-03T02:49:10;101505.47;;;6.64;50.53
28344;BME280;15597;50.914;6.638;2023-03-03T02:51:36;101502.03;;;6.66;51.12
28344;BME280;15597;50.914;6.638;2023-03-03T02:54:03;101499.41;;;6.66;50.95
28344;BME280;15597;50.914;6.638;2023-03-03T02:56:31;101505.50;;;6.67;50.75
28344;BME280;15597;50.914;6.638;2023-03-03T02:58:56;101506.38;;;6.67;51.39
28344;BME280;15597;50.914;6.638;2023-03-03T03:01:22;101504.63;;;6.66;51.52
28344;BME280;15597;50.914;6.638;2023-03-03T03:03:50;101509.84;;;6.68;51.25
28344;BME280;15597;50.914;6.638;2023-03-03T03:06:19;101508.03;;;6.59;51.17
28344;BME280;15597;50.914;6.638;2023-03-03T03:08:45;101510.63;;;6.59;51.37
28344;BME280;15597;50.914;6.638;2023-03-03T03:11:11;101513.25;;;6.61;51.85
28344;BME280;15597;50.914;6.638;2023-03-03T03:13:37;101511.53;;;6.63;50.97
28344;BME280;15597;50.914;6.638;2023-03-03T03:16:04;101508.91;;;6.61;51.09
28344;BME280;15597;50.914;6.638;2023-03-03T03:18:29;101508.06;;;6.61;51.52
28344;BME280;15597;50.914;6.638;2023-03-03T03:20:56;101507.19;;;6.62;51.45
28344;BME280;15597;50.914;6.638;2023-03-03T03:23:22;101508.03;;;6.57;51.50
28344;BME280;15597;50.914;6.638;2023-03-03T03:25:48;101510.63;;;6.57;51.09
28344;BME280;15597;50.914;6.638;2023-03-03T03:28:21;101512.31;;;6.52;51.05
28344;BME280;15597;50.914;6.638;2023-03-03T03:30:50;101513.19;;;6.54;51.65
28344;BME280;15597;50.914;6.638;2023-03-03T03:33:16;101515.78;;;6.56;51.33
28344;BME280;15597;50.914;6.638;2023-03-03T03:35:42;101511.50;;;6.60;51.65
28344;BME280;15597;50.914;6.638;2023-03-03T03:38:12;101514.13;;;6.63;52.07
28344;BME280;15597;50.914;6.638;2023-03-03T03:40:38;101509.78;;;6.63;51.62
28344;BME280;15597;50.914;6.638;2023-03-03T03:43:03;101519.38;;;6.67;52.04
28344;BME280;15597;50.914;6.638;2023-03-03T03:45:29;101520.28;;;6.71;51.52
28344;BME280;15597;50.914;6.638;2023-03-03T03:47:55;101535.88;;;6.72;52.16
28344;BME280;15597;50.914;6.638;2023-03-03T03:50:22;101537.66;;;6.75;52.03
28344;BME280;15597;50.914;6.638;2023-03-03T03:52:48;101541.97;;;6.75;51.27
28344;BME280;15597;50.914;6.638;2023-03-03T03:55:14;101542.81;;;6.70;51.56
28344;BME280;15597;50.914;6.638;2023-03-03T03:57:41;101546.22;;;6.66;51.33
28344;BME280;15597;50.914;6.638;2023-03-03T04:00:08;101537.50;;;6.60;51.31
28344;BME280;15597;50.914;6.638;2023-03-03T04:02:39;101539.16;;;6.53;51.76
28344;BME280;15597;50.914;6.638;2023-03-03T04:05:05;101531.38;;;6.51;51.61
28344;BME280;15597;50.914;6.638;2023-03-03T04:07:32;101536.53;;;6.48;51.96
28344;BME280;15597;50.914;6.638;2023-03-03T04:09:58;101538.28;;;6.49;51.67
28344;BME280;15597;50.914;6.638;2023-03-03T04:12:24;101533.94;;;6.48;52.25
28344;BME280;15597;50.914;6.638;2023-03-03T04:14:50;101529.56;;;6.46;51.95
28344;BME280;15597;50.914;6.638;2023-03-03T04:17:20;101536.47;;;6.42;52.01
28344;BME280;15597;50.914;6.638;2023-03-03T04:19:47;101538.22;;;6.43;52.22
28344;BME280;15597;50.914;6.638;2023-03-03T04:22:13;101534.72;;;6.42;52.12
28344;BME280;15597;50.914;6.638;2023-03-03T04:24:40;101539.06;;;6.43;52.28
28344;BME280;15597;50.914;6.638;2023-03-03T04:27:06;101533.03;;;6.48;52.14
28344;BME280;15597;50.914;6.638;2023-03-03T04:29:33;101536.56;;;6.51;52.54
28344;BME280;15597;50.914;6.638;2023-03-03T04:31:58;101529.66;;;6.53;52.85
28344;BME280;15597;50.914;6.638;2023-03-03T04:34:24;101534.03;;;6.57;52.10
28344;BME280;15597;50.914;6.638;2023-03-03T04:36:50;101534.91;;;6.60;51.77
28344;BME280;15597;50.914;6.638;2023-03-03T04:39:16;101540.16;;;6.63;51.54
28344;BME280;15597;50.914;6.638;2023-03-03T04:41:41;101537.56;;;6.67;51.88
28344;BME280;15597;50.914;6.638;2023-03-03T04:44:07;101538.50;;;6.71;51.83
28344;BME280;15597;50.914;6.638;2023-03-03T04:46:33;101544.53;;;6.71;51.55
28344;BME280;15597;50.914;6.638;2023-03-03T04:49:00;101541.91;;;6.68;51.79
28344;BME280;15597;50.914;6.638;2023-03-03T04:51:26;101534.16;;;6.70;51.93
28344;BME280;15597;50.914;6.638;2023-03-03T04:53:51;101536.75;;;6.70;51.82
28344;BME280;15597;50.914;6.638;2023-03-03T04:56:17;101541.06;;;6.69;51.52
28344;BME280;15597;50.914;6.638;2023-03-03T04:58:43;101543.66;;;6.68;51.58
28344;BME280;15597;50.914;6.638;2023-03-03T05:01:13;101545.34;;;6.63;52.06
28344;BME280;15597;50.914;6.638;2023-03-03T05:03:39;101552.28;;;6.64;51.60
28344;BME280;15597;50.914;6.638;2023-03-03T05:06:05;101555.78;;;6.66;51.71
28344;BME280;15597;50.914;6.638;2023-03-03T05:08:31;101558.34;;;6.64;51.37
28344;BME280;15597;50.914;6.638;2023-03-03T05:10:57;101558.31;;;6.61;51.66
28344;BME280;15597;50.914;6.638;2023-03-03T05:13:24;101562.63;;;6.57;51.98
28344;BME280;15597;50.914;6.638;2023-03-03T05:15:53;101572.13;;;6.55;52.04
28344;BME280;15597;50.914;6.638;2023-03-03T05:18:20;101567.78;;;6.54;51.99
28344;BME280;15597;50.914;6.638;2023-03-03T05:20:47;101572.13;;;6.55;52.67
28344;BME280;15597;50.914;6.638;2023-03-03T05:23:13;101569.56;;;6.58;52.10
28344;BME280;15597;50.914;6.638;2023-03-03T05:25:42;101565.25;;;6.61;52.14
28344;BME280;15597;50.914;6.638;2023-03-03T05:28:08;101568.75;;;6.63;52.51
28344;BME280;15597;50.914;6.638;2023-03-03T05:30:34;101572.25;;;6.65;52.94
28344;BME280;15597;50.914;6.638;2023-03-03T05:32:59;101578.34;;;6.67;52.78
28344;BME280;15597;50.914;6.638;2023-03-03T05:35:25;101569.66;;;6.68;52.46
28344;BME280;15597;50.914;6.638;2023-03-03T05:37:51;101572.31;;;6.72;52.64
28344;BME280;15597;50.914;6.638;2023-03-03T05:40:17;101569.72;;;6.74;52.59
28344;BME280;15597;50.914;6.638;2023-03-03T05:42:43;101562.81;;;6.76;52.53
28344;BME280;15597;50.914;6.638;2023-03-03T05:45:09;101562.81;;;6.76;52.61
28344;BME280;15597;50.914;6.638;2023-03-03T05:47:34;101569.78;;;6.80;52.52
28344;BME280;15597;50.914;6.638;2023-03-03T05:50:00;101573.28;;;6.82;52.18
28344;BME280;15597;50.914;6.638;2023-03-03T05:52:25;101577.63;;;6.85;52.50
28344;BME280;15597;50.914;6.638;2023-03-03T05:54:51;101577.63;;;6.85;52.20
28344;BME280;15597;50.914;6.638;2023-03-03T05:57:17;101587.22;;;6.87;52.08
28344;BME280;15597;50.914;6.638;2023-03-03T05:59:42;101582.00;;;6.87;52.75
28344;BME280;15597;50.914;6.638;2023-03-03T06:02:08;101583.75;;;6.89;52.75
28344;BME280;15597;50.914;6.638;2023-03-03T06:04:33;101582.91;;;6.91;52.38
28344;BME280;15597;50.914;6.638;2023-03-03T06:06:59;101579.47;;;6.92;52.60
28344;BME280;15597;50.914;6.638;2023-03-03T06:09:24;101582.06;;;6.94;51.98
28344;BME280;15597;50.914;6.638;2023-03-03T06:11:51;101584.63;;;6.91;51.76
28344;BME280;15597;50.914;6.638;2023-03-03T06:14:21;101579.41;;;6.87;51.84
28344;BME280;15597;50.914;6.638;2023-03-03T06:16:47;101579.41;;;6.89;52.38
28344;BME280;15597;50.914;6.638;2023-03-03T06:19:13;101579.41;;;6.87;52.72
28344;BME280;15597;50.914;6.638;2023-03-03T06:21:39;101588.06;;;6.86;52.77
28344;BME280;15597;50.914;6.638;2023-03-03T06:24:05;101591.53;;;6.85;52.40
28344;BME280;15597;50.914;6.638;2023-03-03T06:26:31;101594.13;;;6.85;52.42
28344;BME280;15597;50.914;6.638;2023-03-03T06:28:57;101595.84;;;6.83;52.24
28344;BME280;15597;50.914;6.638;2023-03-03T06:31:23;101599.31;;;6.85;52.49
28344;BME280;15597;50.914;6.638;2023-03-03T06:33:49;101589.78;;;6.86;52.20
28344;BME280;15597;50.914;6.638;2023-03-03T06:36:16;101597.63;;;6.87;53.03
28344;BME280;15597;50.914;6.638;2023-03-03T06:38:42;101590.69;;;6.90;52.89
28344;BME280;15597;50.914;6.638;2023-03-03T06:41:08;101592.41;;;6.87;52.49
28344;BME280;15597;50.914;6.638;2023-03-03T06:43:34;101596.72;;;6.87;52.81
28344;BME280;15597;50.914;6.638;2023-03-03T06:46:00;101612.38;;;6.89;52.68
28344;BME280;15597;50.914;6.638;2023-03-03T06:48:25;101614.13;;;6.90;52.61
28344;BME280;15597;50.914;6.638;2023-03-03T06:50:51;101621.03;;;6.89;52.12
28344;BME280;15597;50.914;6.638;2023-03-03T06:53:17;101623.63;;;6.89;52.49
28344;BME280;15597;50.914;6.638;2023-03-03T06:55:44;101626.22;;;6.87;52.42
28344;BME280;15597;50.914;6.638;2023-03-03T06:58:15;101630.50;;;6.82;52.71
28344;BME280;15597;50.914;6.638;2023-03-03T07:00:49;101634.78;;;6.77;52.41
28344;BME280;15597;50.914;6.638;2023-03-03T07:03:21;101637.28;;;6.68;52.82
28344;BME280;15597;50.914;6.638;2023-03-03T07:05:48;101640.75;;;6.67;52.95
28344;BME280;15597;50.914;6.638;2023-03-03T07:08:16;101638.13;;;6.65;53.15
28344;BME280;15597;50.914;6.638;2023-03-03T07:10:43;101645.94;;;6.67;52.80
28344;BME280;15597;50.914;6.638;2023-03-03T07:13:24;101651.19;;;6.70;52.77
28344;BME280;15597;50.914;6.638;2023-03-03T07:15:52;101649.44;;;6.69;52.69
28344;BME280;15597;50.914;6.638;2023-03-03T07:18:28;101650.22;;;6.62;52.84
28344;BME280;15597;50.914;6.638;2023-03-03T07:20:57;101650.16;;;6.55;52.93
28344;BME280;15597;50.914;6.638;2023-03-03T07:23:26;101658.75;;;6.50;52.81
28344;BME280;15597;50.914;6.638;2023-03-03T07:25:53;101657.84;;;6.46;52.74
28344;BME280;15597;50.914;6.638;2023-03-03T07:30:44;101662.91;;;6.37;52.73
28344;BME280;15597;50.914;6.638;2023-03-03T07:33:41;101660.28;;;6.35;52.63
28344;BME280;15597;50.914;6.638;2023-03-03T07:36:23;101669.75;;;6.32;52.83
28344;BME280;15597;50.914;6.638;2023-03-03T07:38:56;101669.75;;;6.32;53.16
28344;BME280;15597;50.914;6.638;2023-03-03T07:41:22;101663.78;;;6.37;52.98
28344;BME280;15597;50.914;6.638;2023-03-03T07:48:54;101680.38;;;6.47;52.91
28344;BME280;15597;50.914;6.638;2023-03-03T07:51:40;101683.88;;;6.49;53.41
28344;BME280;15597;50.914;6.638;2023-03-03T07:57:44;101684.78;;;6.53;52.98
28344;BME280;15597;50.914;6.638;2023-03-03T07:59:48;101694.28;;;6.49;53.38
28344;BME280;15597;50.914;6.638;2023-03-03T08:02:25;101693.34;;;6.44;53.18
28344;BME280;15597;50.914;6.638;2023-03-03T08:04:54;101689.03;;;6.46;52.82
28344;BME280;15597;50.914;6.638;2023-03-03T08:07:21;101691.72;;;6.52;53.40
28344;BME280;15597;50.914;6.638;2023-03-03T08:09:56;101697.84;;;6.57;53.50
28344;BME280;15597;50.914;6.638;2023-03-03T08:12:40;101700.47;;;6.59;53.07
28344;BME280;15597;50.914;6.638;2023-03-03T08:15:24;101708.28;;;6.61;52.75
28344;BME280;15597;50.914;6.638;2023-03-03T08:17:52;101710.09;;;6.65;53.41
28344;BME280;15597;50.914;6.638;2023-03-03T08:20:46;101715.28;;;6.66;52.78
28344;BME280;15597;50.914;6.638;2023-03-03T08:23:13;101705.00;;;6.74;53.28
28344;BME280;15597;50.914;6.638;2023-03-03T08:25:40;101700.69;;;6.76;53.78
28344;BME280;15597;50.914;6.638;2023-03-03T08:28:07;101701.63;;;6.81;53.86
28344;BME280;15597;50.914;6.638;2023-03-03T08:30:33;101708.59;;;6.85;53.70
28344;BME280;15597;50.914;6.638;2023-03-03T08:32:59;101716.47;;;6.92;53.73
28344;BME280;15597;50.914;6.638;2023-03-03T08:35:26;101714.75;;;6.94;53.40
28344;BME280;15597;50.914;6.638;2023-03-03T08:37:51;101724.34;;;6.98;53.04
28344;BME280;15597;50.914;6.638;2023-03-03T08:40:17;101717.44;;;7.00;52.86
28344;BME280;15597;50.914;6.638;2023-03-03T08:42:42;101722.63;;;7.00;53.64
28344;BME280;15597;50.914;6.638;2023-03-03T08:45:08;101725.25;;;6.98;53.18
28344;BME280;15597;50.914;6.638;2023-03-03T08:47:33;101724.34;;;6.98;53.25
28344;BME280;15597;50.914;6.638;2023-03-03T08:49:59;101728.75;;;7.00;52.65
28344;BME280;15597;50.914;6.638;2023-03-03T08:52:27;101727.84;;;7.00;53.29
28344;BME280;15597;50.914;6.638;2023-03-03T08:54:53;101733.09;;;7.01;53.06
28344;BME280;15597;50.914;6.638;2023-03-03T08:57:18;101740.00;;;7.01;53.04
28344;BME280;15597;50.914;6.638;2023-03-03T08:59:44;101736.53;;;7.02;53.51
28344;BME280;15597;50.914;6.638;2023-03-03T09:02:12;101739.16;;;7.02;53.66
28344;BME280;15597;50.914;6.638;2023-03-03T09:04:38;101745.25;;;7.04;52.86
28344;BME280;15597;50.914;6.638;2023-03-03T09:07:03;101743.50;;;7.03;53.14
28344;BME280;15597;50.914;6.638;2023-03-03T09:09:29;101746.94;;;7.02;52.81
28344;BME280;15597;50.914;6.638;2023-03-03T09:11:57;101750.41;;;7.01;52.86
28344;BME280;15597;50.914;6.638;2023-03-03T09:14:27;101745.16;;;6.98;53.38
28344;BME280;15597;50.914;6.638;2023-03-03T09:16:54;101749.53;;;6.99;52.72
28344;BME280;15597;50.914;6.638;2023-03-03T09:19:29;101755.53;;;6.95;52.84
28344;BME280;15597;50.914;6.638;2023-03-03T09:21:58;101759.84;;;6.91;53.17
28344;BME280;15597;50.914;6.638;2023-03-03T09:24:27;101763.19;;;6.82;53.19
28344;BME280;15597;50.914;6.638;2023-03-03T09:26:53;101761.41;;;6.78;52.79
28344;BME280;15597;50.914;6.638;2023-03-03T09:31:51;101756.16;;;6.77;53.00
28344;BME280;15597;50.914;6.638;2023-03-03T09:36:48;101764.09;;;6.84;53.37
28344;BME280;15597;50.914;6.638;2023-03-03T09:41:51;101765.09;;;6.96;53.30
28344;BME280;15597;50.914;6.638;2023-03-03T09:47:40;101777.31;;;7.01;54.15
28344;BME280;15597;50.914;6.638;2023-03-03T09:53:18;101773.91;;;7.07;53.90
28344;BME280;15597;50.914;6.638;2023-03-03T09:58:40;101770.44;;;7.08;54.23
28344;BME280;15597;50.914;6.638;2023-03-03T10:04:06;101780.00;;;7.09;53.42
28344;BME280;15597;50.914;6.638;2023-03-03T10:06:48;101786.06;;;7.07;54.25
28344;BME280;15597;50.914;6.638;2023-03-03T10:12:26;101788.59;;;7.02;54.50
28344;BME280;15597;50.914;6.638;2023-03-03T10:17:53;101793.03;;;7.09;54.05
28344;BME280;15597;50.914;6.638;2023-03-03T10:31:48;101794.03;;;7.21;54.33
28344;BME280;15597;50.914;6.638;2023-03-03T10:50:48;101796.72;;;7.30;53.94
28344;BME280;15597;50.914;6.638;2023-03-03T10:53:28;101793.31;;;7.33;53.56
28344;BME280;15597;50.914;6.638;2023-03-03T10:58:48;101794.22;;;7.39;54.21
28344;BME280;15597;50.914;6.638;2023-03-03T11:12:22;101796.94;;;7.47;53.58
28344;BME280;15597;50.914;6.638;2023-03-03T11:15:12;101794.34;;;7.49;53.53
28344;BME280;15597;50.914;6.638;2023-03-03T11:26:02;101796.06;;;7.47;53.42
28344;BME280;15597;50.914;6.638;2023-03-03T11:31:31;101793.47;;;7.47;53.00
28344;BME280;15597;50.914;6.638;2023-03-03T11:37:07;101797.81;;;7.48;53.62
28344;BME280;15597;50.914;6.638;2023-03-03T11:39:34;101794.38;;;7.52;53.47
28344;BME280;15597;50.914;6.638;2023-03-03T11:44:46;101791.81;;;7.56;53.13
28344;BME280;15597;50.914;6.638;2023-03-03T11:48:15;101792.72;;;7.58;52.89
28344;BME280;15597;50.914;6.638;2023-03-03T11:50:30;101791.03;;;7.62;53.61
28344;BME280;15597;50.914;6.638;2023-03-03T11:53:23;101785.81;;;7.62;53.15
28344;BME280;15597;50.914;6.638;2023-03-03T11:58:53;101792.78;;;7.66;52.92
28344;BME280;15597;50.914;6.638;2023-03-03T12:03:59;101785.03;;;7.72;53.21
28344;BME280;15597;50.914;6.638;2023-03-03T12:06:57;101780.66;;;7.68;52.52
28344;BME280;15597;50.914;6.638;2023-03-03T12:12:23;101777.19;;;7.69;52.81
28344;BME280;15597;50.914;6.638;2023-03-03T12:25:42;101756.47;;;7.82;53.88
28344;BME280;15597;50.914;6.638;2023-03-03T12:28:24;101758.22;;;7.86;53.34
28344;BME280;15597;50.914;6.638;2023-03-03T12:31:31;101749.59;;;7.90;53.44
28344;BME280;15597;50.914;6.638;2023-03-03T12:36:46;101748.78;;;7.96;53.19
28344;BME280;15597;50.914;6.638;2023-03-03T12:39:42;101751.34;;;7.94;53.01
28344;BME280;15597;50.914;6.638;2023-03-03T12:45:17;101758.31;;;7.95;53.52
28344;BME280;15597;50.914;6.638;2023-03-03T12:47:55;101754.88;;;7.98;53.00
28344;BME280;15597;50.914;6.638;2023-03-03T12:50:54;101754.88;;;7.99;53.32
28344;BME280;15597;50.914;6.638;2023-03-03T12:53:36;101748.81;;;8.03;53.10
28344;BME280;15597;50.914;6.638;2023-03-03T12:56:07;101751.41;;;8.03;53.75
28344;BME280;15597;50.914;6.638;2023-03-03T12:58:45;101742.75;;;8.04;53.04
28344;BME280;15597;50.914;6.638;2023-03-03T13:04:28;101747.91;;;7.98;53.62
28344;BME280;15597;50.914;6.638;2023-03-03T13:10:07;101751.44;;;8.07;53.65
28344;BME280;15597;50.914;6.638;2023-03-03T13:13:02;101746.22;;;8.07;53.52
28344;BME280;15597;50.914;6.638;2023-03-03T13:15:39;101750.59;;;8.08;52.77
28344;BME280;15597;50.914;6.638;2023-03-03T13:18:33;101742.75;;;8.08;53.25
28344;BME280;15597;50.914;6.638;2023-03-03T13:21:07;101741.94;;;8.12;52.81
28344;BME280;15597;50.914;6.638;2023-03-03T13:23:46;101741.06;;;8.13;53.32
28344;BME280;15597;50.914;6.638;2023-03-03T13:26:18;101741.09;;;8.19;53.21
28344;BME280;15597;50.914;6.638;2023-03-03T13:29:01;101741.13;;;8.21;53.54
28344;BME280;15597;50.914;6.638;2023-03-03T13:31:40;101736.78;;;8.21;53.05
28344;BME280;15597;50.914;6.638;2023-03-03T13:34:10;101733.31;;;8.24;53.32
28344;BME280;15597;50.914;6.638;2023-03-03T13:36:49;101733.31;;;8.24;53.48
28344;BME280;15597;50.914;6.638;2023-03-03T13:39:58;101734.19;;;8.24;53.42
28344;BME280;15597;50.914;6.638;2023-03-03T13:44:53;101731.59;;;8.27;53.92
28344;BME280;15597;50.914;6.638;2023-03-03T13:47:27;101735.09;;;8.29;53.88
28344;BME280;15597;50.914;6.638;2023-03-03T13:50:37;101726.44;;;8.32;53.86
28344;BME280;15597;50.914;6.638;2023-03-03T13:53:24;101733.41;;;8.36;53.43
28344;BME280;15597;50.914;6.638;2023-03-03T13:56:27;101728.19;;;8.38;53.66
28344;BME280;15597;50.914;6.638;2023-03-03T14:04:58;101729.09;;;8.43;53.95
28344;BME280;15597;50.914;6.638;2023-03-03T14:07:58;101736.03;;;8.44;53.79
28344;BME280;15597;50.914;6.638;2023-03-03T14:10:52;101724.78;;;8.46;54.06
28344;BME280;15597;50.914;6.638;2023-03-03T14:13:30;101730.84;;;8.47;54.12
28344;BME280;15597;50.914;6.638;2023-03-03T14:16:08;101730.06;;;8.51;54.27
28344;BME280;15597;50.914;6.638;2023-03-03T14:18:41;101730.06;;;8.54;54.29
28344;BME280;15597;50.914;6.638;2023-03-03T14:21:18;101718.78;;;8.55;53.86
28344;BME280;15597;50.914;6.638;2023-03-03T14:23:52;101717.91;;;8.58;53.91
28344;BME280;15597;50.914;6.638;2023-03-03T14:26:24;101709.25;;;8.64;54.18
28344;BME280;15597;50.914;6.638;2023-03-03T14:28:50;101709.25;;;8.68;53.79
28344;BME280;15597;50.914;6.638;2023-03-03T14:31:29;101707.50;;;8.67;53.82
28344;BME280;15597;50.914;6.638;2023-03-03T14:36:48;101704.06;;;8.70;53.49
28344;BME280;15597;50.914;6.638;2023-03-03T14:39:38;101711.00;;;8.68;53.58
28344;BME280;15597;50.914;6.638;2023-03-03T14:42:11;101710.13;;;8.70;53.83
28344;BME280;15597;50.914;6.638;2023-03-03T14:44:52;101701.44;;;8.70;53.55
28344;BME280;15597;50.914;6.638;2023-03-03T14:47:22;101703.19;;;8.74;53.33
28344;BME280;15597;50.914;6.638;2023-03-03T14:49:54;101698.84;;;8.77;53.69
28344;BME280;15597;50.914;6.638;2023-03-03T14:52:26;101702.34;;;8.80;53.51
28344;BME280;15597;50.914;6.638;2023-03-03T14:54:56;101693.59;;;8.71;53.48
28344;BME280;15597;50.914;6.638;2023-03-03T14:57:40;101688.38;;;8.68;53.91
28344;BME280;15597;50.914;6.638;2023-03-03T15:05:18;101690.13;;;8.68;52.87
28344;BME280;15597;50.914;6.638;2023-03-03T15:07:47;101687.53;;;8.71;52.63
28344;BME280;15597;50.914;6.638;2023-03-03T15:10:25;101685.78;;;8.67;52.44
28344;BME280;15597;50.914;6.638;2023-03-03T15:12:51;101685.78;;;8.67;52.62
28344;BME280;15597;50.914;6.638;2023-03-03T15:15:19;101685.75;;;8.64;52.34
28344;BME280;15597;50.914;6.638;2023-03-03T15:20:39;101684.84;;;8.54;52.36
28344;BME280;15597;50.914;6.638;2023-03-03T15:23:16;101679.66;;;8.55;53.15
28344;BME280;15597;50.914;6.638;2023-03-03T15:28:56;101677.03;;;8.52;52.44
28344;BME280;15597;50.914;6.638;2023-03-03T15:34:22;101668.34;;;8.56;52.88
28344;BME280;15597;50.914;6.638;2023-03-03T15:37:10;101670.94;;;8.58;52.90
28344;BME280;15597;50.914;6.638;2023-03-03T15:45:03;101675.31;;;8.65;52.31
28344;BME280;15597;50.914;6.638;2023-03-03T15:47:45;101679.69;;;8.65;52.71
28344;BME280;15597;50.914;6.638;2023-03-03T15:50:35;101671.84;;;8.61;52.61
28344;BME280;15597;50.914;6.638;2023-03-03T15:53:32;101665.75;;;8.59;52.61
28344;BME280;15597;50.914;6.638;2023-03-03T15:56:19;101671.84;;;8.58;52.52
28344;BME280;15597;50.914;6.638;2023-03-03T16:01:33;101670.09;;;8.57;52.35
28344;BME280;15597;50.914;6.638;2023-03-03T16:04:00;101669.19;;;8.57;51.84
28344;BME280;15597;50.914;6.638;2023-03-03T16:09:22;101671.84;;;8.58;52.75
28344;BME280;15597;50.914;6.638;2023-03-03T16:11:58;101678.78;;;8.59;52.71
28344;BME280;15597;50.914;6.638;2023-03-03T16:14:49;101678.78;;;8.59;52.66
28344;BME280;15597;50.914;6.638;2023-03-03T16:22:48;101667.50;;;8.60;52.05
28344;BME280;15597;50.914;6.638;2023-03-03T16:25:19;101676.19;;;8.64;52.21